createdAt,value
2017-07-06T00:00:01.000Z,20.3
2017-07-06T00:10:01.000Z,19.8
2017-07-06T00:20:02.000Z,20.3
2017-07-06T00:30:01.000Z,19.5
2017-07-06T00:40:05.000Z,20
2017-07-06T00:50:01.000Z,20.2
2017-07-06T01:00:01.000Z,20.3
2017-07-06T01:10:01.000Z,20.3
2017-07-06T01:20:02.000Z,20.3
2017-07-06T01:30:01.000Z,20.3
2017-07-06T01:40:01.000Z,20.3
2017-07-06T01:50:02.000Z,20.3
2017-07-06T02:00:01.000Z,20.3
2017-07-06T02:10:01.000Z,20.2
2017-07-06T02:20:01.000Z,20.1
2017-07-06T02:30:02.000Z,20.1
2017-07-06T02:40:01.000Z,20
2017-07-06T02:50:01.000Z,20
2017-07-06T03:00:02.000Z,19.9
2017-07-06T03:10:01.000Z,19.9
2017-07-06T03:20:05.000Z,19.9
2017-07-06T03:30:01.000Z,19.9
2017-07-06T03:40:01.000Z,19.9
2017-07-06T03:50:01.000Z,19.8
2017-07-06T04:00:01.000Z,19.8
2017-07-06T04:10:02.000Z,19.7
2017-07-06T04:20:01.000Z,19.7
2017-07-06T04:30:01.000Z,19.7
2017-07-06T04:40:01.000Z,19.6
2017-07-06T04:50:02.000Z,19.6
2017-07-06T05:00:01.000Z,19.5
2017-07-06T05:10:01.000Z,18.6
2017-07-06T05:20:01.000Z,19
2017-07-06T05:30:01.000Z,19.5
2017-07-06T05:40:01.000Z,19.7
2017-07-06T05:50:01.000Z,20
2017-07-06T06:00:05.000Z,19.6
2017-07-06T06:10:01.000Z,19.7
2017-07-06T06:20:02.000Z,19.9
2017-07-06T06:30:01.000Z,20.1
2017-07-06T06:40:01.000Z,20.3
2017-07-06T06:50:01.000Z,20.3
2017-07-06T07:00:01.000Z,19.9
2017-07-06T07:10:01.000Z,20.3
2017-07-06T07:20:01.000Z,20.3
2017-07-06T07:30:01.000Z,20.8
2017-07-06T07:40:01.000Z,21.2
2017-07-06T07:50:01.000Z,21.4
2017-07-06T08:00:01.000Z,21.6
2017-07-06T08:10:01.000Z,21.6
2017-07-06T08:20:02.000Z,21.7
2017-07-06T08:30:01.000Z,21.8
2017-07-06T08:40:05.000Z,22
2017-07-06T08:50:01.000Z,22.1
2017-07-06T09:00:01.000Z,22.1
2017-07-06T09:10:01.000Z,22.2
2017-07-06T09:20:01.000Z,22.3
2017-07-06T09:30:01.000Z,22.3
2017-07-06T09:40:01.000Z,22.4
2017-07-06T09:50:02.000Z,22.3
2017-07-06T10:00:01.000Z,22.5
2017-07-06T10:10:01.000Z,22.7
2017-07-06T10:20:01.000Z,22.6
2017-07-06T10:30:01.000Z,22.7
2017-07-06T10:40:01.000Z,22.9
2017-07-06T10:50:01.000Z,23
2017-07-06T11:00:02.000Z,23.1
2017-07-06T11:10:01.000Z,23.3
2017-07-06T11:20:05.000Z,23.4
2017-07-06T11:30:02.000Z,23.5
2017-07-06T11:40:01.000Z,23.6
2017-07-06T11:50:01.000Z,23.6
2017-07-06T12:00:01.000Z,23.8
2017-07-06T12:10:01.000Z,24
2017-07-06T12:20:02.000Z,24
2017-07-06T12:30:01.000Z,24
2017-07-06T12:40:01.000Z,24.1
2017-07-06T12:50:02.000Z,24.2
2017-07-06T13:00:01.000Z,24.4
2017-07-06T13:10:01.000Z,24.5
2017-07-06T13:20:01.000Z,24.5
2017-07-06T13:30:01.000Z,24.7
2017-07-06T13:40:01.000Z,24.7
2017-07-06T13:50:01.000Z,24.7
2017-07-06T14:00:05.000Z,24.7
2017-07-06T14:10:01.000Z,24.7
2017-07-06T14:20:01.000Z,24.7
2017-07-06T14:30:01.000Z,24.7
2017-07-06T14:40:02.000Z,24.7
2017-07-06T14:50:01.000Z,24.7
2017-07-06T15:00:02.000Z,24.7
2017-07-06T15:10:01.000Z,24.7
2017-07-06T15:20:01.000Z,24.7
2017-07-06T15:30:02.000Z,24.7
2017-07-06T15:40:01.000Z,24.7
2017-07-06T15:50:01.000Z,24.7
2017-07-06T16:00:01.000Z,24.7
2017-07-06T16:10:02.000Z,24.7
2017-07-06T16:20:01.000Z,24.7
2017-07-06T16:30:01.000Z,24.7
2017-07-06T16:40:05.000Z,24.7
2017-07-06T16:50:01.000Z,24.7
2017-07-06T17:00:01.000Z,24.7
2017-07-06T17:10:02.000Z,24.7
2017-07-06T17:20:01.000Z,24.7
2017-07-06T17:30:01.000Z,24.7
2017-07-06T17:40:02.000Z,24.7
2017-07-06T17:50:02.000Z,24.7
2017-07-06T18:00:02.000Z,24.7
2017-07-06T18:10:01.000Z,24.7
2017-07-06T18:20:01.000Z,24.7
2017-07-06T18:30:02.000Z,24.5
2017-07-06T18:40:01.000Z,24.5
2017-07-06T18:50:01.000Z,24.7
2017-07-06T19:00:01.000Z,24.5
2017-07-06T19:10:02.000Z,24.5
2017-07-06T19:20:05.000Z,24.4
2017-07-06T19:30:01.000Z,24.4
2017-07-06T19:40:02.000Z,24.4
2017-07-06T19:50:02.000Z,24.4
2017-07-06T20:00:01.000Z,24.3
2017-07-06T20:10:01.000Z,24.3
2017-07-06T20:20:01.000Z,24.1
2017-07-06T20:30:01.000Z,24.2
2017-07-06T20:40:01.000Z,24.1
2017-07-06T20:50:01.000Z,24.1
2017-07-06T21:00:01.000Z,24
2017-07-06T21:10:01.000Z,24
2017-07-06T21:20:01.000Z,23.9
2017-07-06T21:30:01.000Z,23.9
2017-07-06T21:40:01.000Z,23.8
2017-07-06T21:50:01.000Z,23.8
2017-07-06T22:00:05.000Z,23.6
2017-07-06T22:10:01.000Z,23.6
2017-07-06T22:20:01.000Z,23.6
2017-07-06T22:30:01.000Z,23.6
2017-07-06T22:40:01.000Z,23.6
2017-07-06T22:50:01.000Z,23.5
2017-07-06T23:00:02.000Z,23.5
2017-07-06T23:10:02.000Z,23.4
2017-07-06T23:20:01.000Z,23.3
2017-07-06T23:30:01.000Z,23.3
2017-07-06T23:40:02.000Z,23.3
2017-07-06T23:50:01.000Z,23.3
